createdAt,value
2023-01-13T00:01:09.881Z,0.28
2023-01-13T00:03:37.618Z,0.40
2023-01-13T00:06:05.733Z,0.20
2023-01-13T00:08:32.954Z,0.28
2023-01-13T00:11:00.487Z,0.30
2023-01-13T00:13:27.213Z,0.30
2023-01-13T00:15:58.294Z,0.40
2023-01-13T00:18:25.586Z,0.47
2023-01-13T00:21:02.524Z,0.20
2023-01-13T00:23:30.539Z,0.20
2023-01-13T00:26:02.149Z,0.30
2023-01-13T00:28:29.721Z,0.10
2023-01-13T00:30:58.529Z,0.20
2023-01-13T00:33:25.667Z,0.32
2023-01-13T00:35:59.563Z,0.20
2023-01-13T00:38:27.165Z,0.20
2023-01-13T00:41:02.726Z,0.30
2023-01-13T00:43:30.889Z,0.17
2023-01-13T00:45:57.532Z,0.15
2023-01-13T00:48:24.847Z,0.28
2023-01-13T00:51:00.022Z,0.15
2023-01-13T00:56:01.112Z,0.20
2023-01-13T00:58:28.485Z,0.20
2023-01-13T01:00:55.221Z,0.20
2023-01-13T01:03:22.035Z,0.20
2023-01-13T01:05:49.520Z,0.20
2023-01-13T01:08:16.213Z,0.20
2023-01-13T01:10:42.960Z,0.20
2023-01-13T01:13:11.885Z,0.20
2023-01-13T01:15:41.437Z,0.20
2023-01-13T01:18:08.415Z,0.22
2023-01-13T01:20:37.170Z,0.20
2023-01-13T01:23:04.265Z,0.20
2023-01-13T01:25:32.806Z,0.30
2023-01-13T01:27:59.971Z,0.20
2023-01-13T01:30:28.541Z,0.30
2023-01-13T01:32:57.296Z,0.30
2023-01-13T01:35:24.740Z,0.30
2023-01-13T01:37:51.658Z,0.20
2023-01-13T01:40:18.390Z,0.13
2023-01-13T01:43:03.465Z,0.17
2023-01-13T01:48:01.218Z,0.30
2023-01-13T01:50:29.284Z,0.30
2023-01-13T01:53:17.084Z,0.20
2023-01-13T01:55:44.110Z,0.38
2023-01-13T01:58:18.097Z,0.20
2023-01-13T02:00:45.142Z,0.25
2023-01-13T02:03:11.984Z,0.57
2023-01-13T02:05:39.649Z,0.20
2023-01-13T02:08:07.292Z,0.10
2023-01-13T02:10:34.016Z,0.20
2023-01-13T02:13:03.173Z,0.32
2023-01-13T02:15:48.383Z,0.20
2023-01-13T02:18:17.740Z,0.50
2023-01-13T02:21:03.806Z,0.30
2023-01-13T02:24:30.044Z,0.35
2023-01-13T02:27:21.558Z,0.32
2023-01-13T02:30:18.826Z,0.30
2023-01-13T02:32:49.109Z,0.22
2023-01-13T02:35:28.214Z,0.30
2023-01-13T02:37:55.408Z,0.20
2023-01-13T02:40:26.131Z,0.10
2023-01-13T02:43:25.290Z,0.50
2023-01-13T02:46:01.819Z,0.30
2023-01-13T02:48:29.978Z,0.30
2023-01-13T02:51:00.823Z,0.10
2023-01-13T02:53:35.883Z,0.20
2023-01-13T02:56:05.102Z,0.32
2023-01-13T02:58:32.736Z,0.20
2023-01-13T03:00:59.472Z,0.40
2023-01-13T03:03:26.272Z,0.20
2023-01-13T03:06:25.947Z,0.25
2023-01-13T03:09:06.935Z,0.40
2023-01-13T03:11:39.893Z,0.30
2023-01-13T03:14:12.268Z,0.20
2023-01-13T03:17:04.916Z,0.20
2023-01-13T03:19:44.900Z,0.20
2023-01-13T03:22:22.799Z,0.10
2023-01-13T03:24:56.610Z,0.25
2023-01-13T03:27:57.893Z,0.28
2023-01-13T03:30:32.968Z,0.28
2023-01-13T03:33:21.689Z,0.20
2023-01-13T03:35:52.124Z,0.08
2023-01-13T03:38:22.603Z,0.10
2023-01-13T03:40:58.103Z,0.17
2023-01-13T03:43:47.589Z,0.20
2023-01-13T03:46:19.864Z,0.13
2023-01-13T03:48:46.806Z,0.20
2023-01-13T03:51:17.784Z,0.10
2023-01-13T03:53:49.340Z,0.20
2023-01-13T03:56:24.211Z,0.28
2023-01-13T04:01:32.402Z,0.10
2023-01-13T04:04:07.748Z,0.20
2023-01-13T04:06:38.175Z,0.20
2023-01-13T04:09:12.235Z,0.20
2023-01-13T04:11:43.763Z,0.20
2023-01-13T04:14:11.994Z,0.20
2023-01-13T04:16:40.321Z,0.30
2023-01-13T04:19:07.054Z,0.10
2023-01-13T04:21:34.294Z,0.10
2023-01-13T04:24:01.219Z,0.10
2023-01-13T04:26:27.798Z,0.10
2023-01-13T04:28:55.358Z,0.10
2023-01-13T04:31:22.016Z,0.20
2023-01-13T04:33:48.881Z,0.20
2023-01-13T04:36:15.742Z,0.10
2023-01-13T04:38:42.339Z,0.20
2023-01-13T04:41:08.886Z,0.10
2023-01-13T04:43:35.469Z,0.20
2023-01-13T04:46:02.062Z,0.30
2023-01-13T04:48:28.863Z,0.20
2023-01-13T04:50:55.404Z,0.10
2023-01-13T04:53:22.015Z,0.10
2023-01-13T04:55:49.652Z,0.20
2023-01-13T04:58:16.415Z,0.20
2023-01-13T05:00:43.012Z,0.15
2023-01-13T05:03:09.916Z,0.22
2023-01-13T05:05:37.828Z,0.10
2023-01-13T05:08:05.269Z,0.10
2023-01-13T05:10:31.848Z,0.20
2023-01-13T05:13:18.462Z,0.10
2023-01-13T05:16:05.807Z,0.25
2023-01-13T05:18:33.335Z,0.20
2023-01-13T05:20:59.898Z,0.13
2023-01-13T05:23:45.364Z,0.20
2023-01-13T05:26:12.014Z,0.10
2023-01-13T05:28:40.566Z,0.20
2023-01-13T05:31:07.752Z,0.17
2023-01-13T05:33:35.811Z,0.10
2023-01-13T05:36:04.437Z,0.10
2023-01-13T05:38:31.021Z,0.10
2023-01-13T05:41:18.165Z,0.20
2023-01-13T05:43:45.252Z,0.10
2023-01-13T05:46:12.281Z,0.17
2023-01-13T05:48:41.381Z,0.45
2023-01-13T05:51:09.767Z,0.30
2023-01-13T05:53:37.056Z,0.40
2023-01-13T05:56:05.106Z,0.57
2023-01-13T05:58:31.915Z,0.40
2023-01-13T06:01:04.369Z,0.50
2023-01-13T06:03:31.198Z,0.77
2023-01-13T06:06:02.174Z,0.65
2023-01-13T06:08:29.928Z,0.38
2023-01-13T06:10:56.786Z,0.60
2023-01-13T06:13:25.165Z,0.60
2023-01-13T06:15:56.466Z,0.77
2023-01-13T06:18:23.116Z,0.80
2023-01-13T06:20:50.246Z,0.60
2023-01-13T06:23:17.304Z,0.70
2023-01-13T06:25:46.894Z,1.20
2023-01-13T06:28:13.517Z,0.70
2023-01-13T06:30:50.286Z,0.77
2023-01-13T06:33:21.115Z,0.88
2023-01-13T06:35:54.211Z,0.90
2023-01-13T06:38:21.711Z,0.90
2023-01-13T06:40:48.277Z,0.60
2023-01-13T06:43:16.438Z,0.75
2023-01-13T06:45:54.008Z,0.90
2023-01-13T06:48:23.602Z,0.47
2023-01-13T06:50:50.153Z,0.73
2023-01-13T06:53:16.774Z,0.85
2023-01-13T06:55:43.276Z,1.08
2023-01-13T06:58:09.934Z,0.80
2023-01-13T07:00:39.530Z,1.42
2023-01-13T07:03:07.285Z,0.50
2023-01-13T07:05:33.869Z,0.77
2023-01-13T07:08:00.802Z,0.68
2023-01-13T07:10:28.040Z,0.90
2023-01-13T07:13:13.376Z,0.73
2023-01-13T07:18:06.440Z,0.60
2023-01-13T07:20:34.048Z,1.05
2023-01-13T07:23:00.573Z,0.80
2023-01-13T07:25:27.238Z,0.90
2023-01-13T07:27:53.913Z,0.77
2023-01-13T07:30:21.093Z,0.82
2023-01-13T07:32:47.671Z,0.68
2023-01-13T07:35:14.357Z,0.70
2023-01-13T07:37:41.886Z,0.98
2023-01-13T07:40:09.452Z,0.77
2023-01-13T07:42:57.159Z,0.93
2023-01-13T07:45:23.844Z,0.70
2023-01-13T07:47:52.507Z,0.70
2023-01-13T07:50:21.526Z,0.88
2023-01-13T07:52:48.047Z,0.85
2023-01-13T07:55:14.801Z,0.70
2023-01-13T07:57:41.352Z,0.70
2023-01-13T08:00:12.755Z,0.57
2023-01-13T08:02:41.284Z,0.65
2023-01-13T08:05:08.614Z,0.68
2023-01-13T08:07:35.554Z,0.57
2023-01-13T08:10:03.865Z,0.60
2023-01-13T08:12:52.785Z,0.70
2023-01-13T08:15:23.342Z,0.80
2023-01-13T08:17:49.990Z,0.50
2023-01-13T08:20:17.211Z,0.70
2023-01-13T08:22:44.445Z,0.52
2023-01-13T08:25:10.984Z,0.70
2023-01-13T08:27:37.552Z,0.80
2023-01-13T08:30:05.759Z,0.63
2023-01-13T08:32:32.288Z,0.63
2023-01-13T08:34:59.269Z,0.68
2023-01-13T08:37:25.780Z,0.45
2023-01-13T08:39:52.405Z,0.50
2023-01-13T08:42:18.940Z,0.43
2023-01-13T08:44:45.761Z,0.60
2023-01-13T08:47:12.338Z,0.50
2023-01-13T08:49:38.964Z,0.73
2023-01-13T08:52:05.638Z,0.52
2023-01-13T08:54:32.216Z,0.60
2023-01-13T08:56:58.882Z,0.50
2023-01-13T08:59:25.725Z,0.47
2023-01-13T09:01:52.479Z,0.60
2023-01-13T09:04:24.215Z,0.43
2023-01-13T09:06:51.467Z,0.50
2023-01-13T09:09:18.197Z,0.45
2023-01-13T09:12:26.217Z,0.20
2023-01-13T09:14:52.831Z,0.40
2023-01-13T09:17:19.937Z,0.40
2023-01-13T09:19:46.806Z,0.30
2023-01-13T09:22:15.785Z,0.30
2023-01-13T09:24:42.470Z,0.32
2023-01-13T09:27:13.803Z,0.50
2023-01-13T09:29:40.576Z,0.30
2023-01-13T09:32:07.609Z,0.60
2023-01-13T09:34:52.770Z,0.47
2023-01-13T09:37:19.369Z,0.40
2023-01-13T09:39:45.890Z,0.40
2023-01-13T09:42:47.918Z,0.32
2023-01-13T09:45:34.917Z,0.20
2023-01-13T09:48:16.236Z,0.63
2023-01-13T09:51:01.357Z,0.32
2023-01-13T09:53:34.452Z,0.50
2023-01-13T09:56:01.222Z,0.35
2023-01-13T09:58:29.804Z,0.35
2023-01-13T10:01:13.578Z,0.30
2023-01-13T10:06:51.491Z,0.32
2023-01-13T10:09:29.956Z,0.47
2023-01-13T10:12:16.747Z,0.22
2023-01-13T10:14:52.964Z,0.30
2023-01-13T10:17:22.214Z,0.17
2023-01-13T10:20:03.390Z,0.25
2023-01-13T10:22:44.611Z,0.38
2023-01-13T10:25:21.045Z,0.20
2023-01-13T10:27:50.253Z,0.35
2023-01-13T10:30:16.915Z,0.60
2023-01-13T10:32:46.765Z,0.40
2023-01-13T10:35:13.326Z,0.30
2023-01-13T10:37:40.112Z,0.30
2023-01-13T10:40:17.271Z,0.30
2023-01-13T10:42:44.352Z,0.40
2023-01-13T10:45:19.535Z,0.20
2023-01-13T10:48:06.100Z,0.30
2023-01-13T10:50:35.406Z,0.50
2023-01-13T10:53:24.632Z,0.35
2023-01-13T10:56:15.225Z,0.50
2023-01-13T10:58:42.172Z,0.50
2023-01-13T11:01:20.136Z,0.30
2023-01-13T11:03:48.140Z,0.20
2023-01-13T11:06:29.064Z,0.20
2023-01-13T11:08:58.276Z,0.20
2023-01-13T11:11:42.538Z,0.17
2023-01-13T11:14:39.630Z,0.25
2023-01-13T11:17:28.772Z,0.30
2023-01-13T11:20:19.271Z,0.17
2023-01-13T11:22:51.309Z,0.25
2023-01-13T11:25:24.499Z,0.20
2023-01-13T11:28:29.884Z,0.40
2023-01-13T11:31:36.856Z,0.38
2023-01-13T11:34:24.723Z,0.30
2023-01-13T11:36:53.701Z,0.20
2023-01-13T11:39:42.117Z,0.20
2023-01-13T11:42:21.763Z,0.25
2023-01-13T11:45:12.431Z,0.20
2023-01-13T11:47:39.822Z,0.40
2023-01-13T11:50:17.473Z,0.10
2023-01-13T11:52:57.279Z,0.32
2023-01-13T11:55:48.191Z,0.20
2023-01-13T11:58:50.532Z,0.20
2023-01-13T12:01:24.578Z,0.20
2023-01-13T12:04:09.289Z,0.30
2023-01-13T12:06:39.061Z,0.20
2023-01-13T12:09:33.003Z,0.30
2023-01-13T12:12:18.308Z,0.30
2023-01-13T12:17:23.551Z,0.20
2023-01-13T12:19:51.211Z,0.20
2023-01-13T12:22:23.928Z,0.10
2023-01-13T12:25:06.915Z,0.10
2023-01-13T12:27:47.295Z,0.33
2023-01-13T12:30:26.569Z,0.13
2023-01-13T12:32:55.573Z,0.40
2023-01-13T12:35:41.996Z,0.15
2023-01-13T12:38:19.422Z,0.10
2023-01-13T12:41:09.098Z,0.10
2023-01-13T12:43:56.155Z,0.10
2023-01-13T12:46:22.664Z,0.20
2023-01-13T12:48:54.923Z,0.10
2023-01-13T12:51:26.361Z,0.10
2023-01-13T12:53:54.699Z,0.20
2023-01-13T12:56:42.336Z,0.10
2023-01-13T12:59:32.828Z,0.17
2023-01-13T13:02:11.862Z,0.10
2023-01-13T13:04:51.645Z,0.10
2023-01-13T13:07:30.452Z,0.10
2023-01-13T13:10:18.674Z,0.10
2023-01-13T13:13:04.088Z,0.10
2023-01-13T13:15:34.090Z,0.10
2023-01-13T13:18:08.677Z,0.17
2023-01-13T13:21:10.335Z,0.10
2023-01-13T13:23:50.281Z,0.20
2023-01-13T13:26:24.735Z,0.10
2023-01-13T13:29:20.494Z,0.17
2023-01-13T13:32:11.846Z,0.10
2023-01-13T13:34:44.457Z,0.08
2023-01-13T13:37:29.716Z,0.28
2023-01-13T13:43:02.942Z,0.30
2023-01-13T13:45:48.882Z,0.28
2023-01-13T13:51:01.825Z,0.10
2023-01-13T13:53:31.787Z,0.20
2023-01-13T13:56:00.504Z,0.30
2023-01-13T13:58:33.806Z,0.10
2023-01-13T14:01:00.886Z,0.10
2023-01-13T14:03:32.062Z,0.30
2023-01-13T14:06:01.412Z,0.20
2023-01-13T14:08:31.033Z,0.10
2023-01-13T14:10:57.676Z,0.22
2023-01-13T14:13:31.529Z,0.20
2023-01-13T14:16:06.500Z,0.10
2023-01-13T14:18:45.170Z,2.60
2023-01-13T14:21:24.944Z,1.23
2023-01-13T14:23:56.455Z,0.40
2023-01-13T14:26:25.587Z,0.90
2023-01-13T14:28:53.386Z,1.00
2023-01-13T14:31:20.387Z,1.23
2023-01-13T14:33:51.750Z,0.47
2023-01-13T14:36:33.731Z,0.90
2023-01-13T14:39:03.039Z,0.57
2023-01-13T14:41:50.531Z,0.52
2023-01-13T14:44:22.611Z,0.50
2023-01-13T14:46:49.416Z,0.50
2023-01-13T14:49:25.577Z,0.50
2023-01-13T14:51:52.501Z,0.60
2023-01-13T14:54:41.075Z,0.40
2023-01-13T14:57:27.402Z,0.52
2023-01-13T15:00:27.213Z,0.47
2023-01-13T15:03:01.122Z,0.73
2023-01-13T15:05:27.777Z,0.65
2023-01-13T15:08:02.152Z,0.55
2023-01-13T15:10:31.334Z,0.60
2023-01-13T15:13:00.961Z,0.40
2023-01-13T15:15:38.516Z,0.40
2023-01-13T15:18:14.300Z,0.55
2023-01-13T15:20:41.445Z,0.35
2023-01-13T15:23:08.669Z,0.30
2023-01-13T15:25:38.577Z,0.40
2023-01-13T15:28:06.563Z,0.30
2023-01-13T15:30:33.786Z,0.75
2023-01-13T15:33:00.520Z,0.30
2023-01-13T15:35:28.865Z,0.38
2023-01-13T15:37:56.549Z,0.50
2023-01-13T15:40:26.902Z,0.70
2023-01-13T15:43:12.162Z,0.65
2023-01-13T15:48:25.371Z,0.45
2023-01-13T15:50:51.916Z,0.20
2023-01-13T15:53:18.589Z,0.70
2023-01-13T15:55:47.037Z,0.32
2023-01-13T15:58:14.193Z,0.60
2023-01-13T16:00:41.768Z,0.45
2023-01-13T16:03:13.152Z,0.40
2023-01-13T16:05:40.559Z,0.40
2023-01-13T16:08:25.351Z,0.63
2023-01-13T16:10:51.900Z,0.30
2023-01-13T16:13:18.724Z,0.55
2023-01-13T16:15:48.141Z,0.43
2023-01-13T16:18:20.999Z,0.45
2023-01-13T16:20:47.870Z,0.40
2023-01-13T16:23:15.277Z,0.35
2023-01-13T16:25:45.031Z,0.63
2023-01-13T16:28:22.563Z,0.50
2023-01-13T16:30:51.160Z,0.30
2023-01-13T16:33:18.282Z,0.20
2023-01-13T16:36:10.003Z,0.40
2023-01-13T16:38:31.540Z,0.38
2023-01-13T16:40:58.661Z,0.30
2023-01-13T16:43:25.251Z,0.20
2023-01-13T16:45:51.853Z,0.40
2023-01-13T16:48:19.729Z,0.38
2023-01-13T16:50:46.548Z,1.05
2023-01-13T16:53:13.195Z,0.40
2023-01-13T16:55:40.976Z,0.40
2023-01-13T16:58:15.684Z,0.22
2023-01-13T17:00:42.299Z,0.25
2023-01-13T17:03:09.359Z,0.32
2023-01-13T17:05:43.355Z,0.30
2023-01-13T17:08:17.200Z,0.40
2023-01-13T17:10:44.733Z,0.40
2023-01-13T17:13:16.361Z,0.32
2023-01-13T17:15:44.408Z,0.35
2023-01-13T17:18:13.117Z,0.30
2023-01-13T17:20:41.022Z,0.60
2023-01-13T17:23:08.366Z,0.35
2023-01-13T17:25:34.984Z,0.50
2023-01-13T17:28:01.536Z,0.52
2023-01-13T17:30:28.692Z,0.32
2023-01-13T17:32:55.250Z,0.38
2023-01-13T17:35:25.398Z,0.50
2023-01-13T17:37:53.354Z,0.32
2023-01-13T17:40:20.476Z,0.20
2023-01-13T17:42:48.624Z,0.35
2023-01-13T17:45:16.265Z,0.22
2023-01-13T17:47:42.840Z,0.30
2023-01-13T17:50:10.083Z,0.20
2023-01-13T17:52:36.665Z,0.13
2023-01-13T17:55:03.324Z,0.40
2023-01-13T17:57:29.844Z,0.50
2023-01-13T17:59:59.420Z,0.28
2023-01-13T18:02:29.853Z,0.25
2023-01-13T18:04:56.476Z,0.43
2023-01-13T18:07:23.259Z,0.40
2023-01-13T18:09:50.703Z,0.30
2023-01-13T18:12:17.241Z,0.55
2023-01-13T18:14:43.841Z,0.50
2023-01-13T18:17:11.828Z,0.70
2023-01-13T18:19:57.118Z,0.30
2023-01-13T18:22:42.316Z,0.40
2023-01-13T18:27:57.616Z,0.50
2023-01-13T18:30:24.221Z,0.17
2023-01-13T18:32:50.789Z,0.30
2023-01-13T18:35:17.474Z,0.30
2023-01-13T18:37:44.454Z,0.20
2023-01-13T18:40:13.203Z,0.40
2023-01-13T18:42:52.112Z,0.47
2023-01-13T18:45:27.116Z,0.50
2023-01-13T18:47:55.164Z,0.30
2023-01-13T18:50:22.385Z,0.47
2023-01-13T18:52:49.766Z,0.40
2023-01-13T18:55:16.824Z,0.30
2023-01-13T18:57:43.536Z,0.50
2023-01-13T19:00:12.559Z,0.52
2023-01-13T19:02:39.228Z,0.47
2023-01-13T19:05:06.181Z,0.47
2023-01-13T19:07:34.996Z,0.63
2023-01-13T19:10:04.496Z,0.50
2023-01-13T19:12:33.622Z,0.65
2023-01-13T19:15:01.034Z,0.32
2023-01-13T19:17:32.629Z,0.38
2023-01-13T19:19:59.629Z,0.40
2023-01-13T19:22:33.670Z,0.50
2023-01-13T19:25:01.129Z,0.30
2023-01-13T19:27:28.188Z,0.60
2023-01-13T19:29:58.138Z,0.43
2023-01-13T19:32:25.439Z,0.40
2023-01-13T19:34:53.160Z,0.32
2023-01-13T19:37:20.563Z,0.40
2023-01-13T19:39:47.684Z,0.20
2023-01-13T19:42:32.763Z,0.30
2023-01-13T19:45:18.543Z,0.30
2023-01-13T19:47:45.959Z,0.43
2023-01-13T19:50:13.594Z,0.40
2023-01-13T19:52:41.362Z,0.40
2023-01-13T19:55:08.183Z,0.30
2023-01-13T19:57:34.818Z,0.20
2023-01-13T20:00:01.431Z,0.50
2023-01-13T20:02:28.438Z,0.28
2023-01-13T20:04:59.995Z,0.30
2023-01-13T20:07:28.505Z,0.32
2023-01-13T20:09:58.084Z,0.10
2023-01-13T20:12:25.527Z,0.30
2023-01-13T20:14:52.467Z,0.20
2023-01-13T20:17:20.821Z,0.30
2023-01-13T20:19:47.574Z,0.20
2023-01-13T20:22:14.562Z,0.20
2023-01-13T20:24:42.416Z,0.20
2023-01-13T20:27:09.315Z,0.30
2023-01-13T20:29:36.469Z,0.30
2023-01-13T20:32:03.480Z,0.20
2023-01-13T20:34:30.003Z,0.10
2023-01-13T20:36:56.625Z,0.10
2023-01-13T20:39:26.450Z,0.10
2023-01-13T20:42:11.945Z,0.20
2023-01-13T20:44:38.969Z,0.20
2023-01-13T20:47:05.792Z,0.20
2023-01-13T20:49:32.837Z,0.30
2023-01-13T20:51:59.443Z,0.30
2023-01-13T20:54:26.432Z,0.25
2023-01-13T20:56:53.343Z,0.10
2023-01-13T20:59:20.150Z,0.20
2023-01-13T21:01:46.930Z,0.20
2023-01-13T21:04:13.703Z,0.30
2023-01-13T21:06:41.600Z,0.38
2023-01-13T21:09:08.966Z,0.15
2023-01-13T21:11:54.555Z,0.20
2023-01-13T21:14:44.206Z,0.10
2023-01-13T21:17:39.843Z,0.20
2023-01-13T21:20:13.550Z,0.13
2023-01-13T21:22:44.462Z,0.20
2023-01-13T21:25:12.421Z,0.17
2023-01-13T21:27:39.224Z,0.22
2023-01-13T21:30:06.711Z,0.20
2023-01-13T21:32:33.430Z,0.13
2023-01-13T21:35:01.828Z,0.20
2023-01-13T21:37:28.394Z,0.20
2023-01-13T21:39:55.479Z,0.20
2023-01-13T21:42:41.020Z,0.22
2023-01-13T21:47:55.787Z,0.20
2023-01-13T21:50:25.121Z,0.20
2023-01-13T21:52:52.570Z,0.20
2023-01-13T21:55:23.726Z,0.10
2023-01-13T21:57:50.417Z,0.10
2023-01-13T22:00:19.380Z,0.20
2023-01-13T22:02:46.509Z,0.30
2023-01-13T22:05:14.607Z,0.10
2023-01-13T22:07:42.332Z,0.20
2023-01-13T22:10:11.850Z,0.20
2023-01-13T22:12:38.586Z,0.10
2023-01-13T22:15:06.600Z,0.10
2023-01-13T22:17:34.042Z,0.10
2023-01-13T22:20:01.324Z,0.20
2023-01-13T22:22:29.059Z,0.30
2023-01-13T22:24:55.720Z,0.10
2023-01-13T22:27:25.244Z,0.10
2023-01-13T22:29:52.938Z,0.10
2023-01-13T22:32:21.111Z,0.20
2023-01-13T22:34:47.986Z,0.22
2023-01-13T22:37:14.674Z,0.40
2023-01-13T22:39:41.468Z,0.20
2023-01-13T22:42:10.035Z,0.32
2023-01-13T22:44:36.610Z,0.40
2023-01-13T22:47:03.284Z,0.20
2023-01-13T22:49:29.819Z,0.20
2023-01-13T22:51:56.477Z,0.30
2023-01-13T22:54:23.153Z,0.10
2023-01-13T22:56:49.791Z,0.22
2023-01-13T22:59:16.543Z,0.10
2023-01-13T23:01:43.672Z,0.10
2023-01-13T23:04:12.607Z,0.38
2023-01-13T23:06:39.934Z,0.10
2023-01-13T23:09:07.163Z,0.10
2023-01-13T23:11:35.200Z,0.20
2023-01-13T23:14:06.579Z,0.15
2023-01-13T23:16:36.665Z,0.20
2023-01-13T23:19:04.453Z,0.13
2023-01-13T23:21:33.212Z,0.28
2023-01-13T23:24:00.183Z,0.20
2023-01-13T23:26:30.121Z,0.20
2023-01-13T23:28:59.235Z,0.10
2023-01-13T23:31:25.920Z,0.15
2023-01-13T23:33:52.559Z,0.32
2023-01-13T23:36:24.553Z,0.13
2023-01-13T23:38:52.225Z,0.22
2023-01-13T23:41:22.365Z,0.20
2023-01-13T23:43:53.672Z,0.20
2023-01-13T23:46:20.733Z,0.20
2023-01-13T23:48:48.275Z,0.17
2023-01-13T23:51:14.977Z,0.15
2023-01-13T23:53:46.944Z,0.10
2023-01-13T23:56:16.081Z,0.32
2023-01-13T23:58:43.578Z,0.20
